Date,TemperatureHighF,TemperatureAvgF,TemperatureLowF,DewpointHighF,DewpointAvgF,DewpointLowF,HumidityHigh,HumidityAvg,HumidityLow,PressureMaxIn,PressureMinIn,WindSpeedMaxMPH,WindSpeedAvgMPH,GustSpeedMaxMPH,PrecipitationSumIn
2012-1-1,54.4,43.1,32.7,45.4,27.7,13.3,80,56,33,30.31,29.70,32,9,32,0.01
2012-1-2,32.7,26.7,21.7,18.4,13.2,7.4,66,57,49,30.48,30.27,30,6,30,0.00
2012-1-3,33.7,24.3,14.0,17.1,12.7,9.5,86,62,39,30.55,30.19,13,3,13,0.00
2012-1-4,48.5,36.8,28.3,30.0,24.4,16.7,88,61,45,30.19,30.02,18,4,18,0.00
2012-1-5,60.4,42.7,26.3,36.2,31.2,23.8,92,67,36,30.15,29.90,18,3,18,0.00
2012-1-6,61.8,47.3,37.4,43.0,35.5,31.3,80,65,37,29.90,29.75,16,4,18,0.00
2012-1-7,51.4,40.7,33.1,35.4,29.3,26.1,84,66,39,30.23,29.86,14,2,14,0.00
2012-1-8,46.1,37.2,25.1,33.7,29.5,23.1,94,74,57,30.32,30.22,12,3,12,0.00
2012-1-9,49.4,36.1,26.2,31.9,27.0,23.7,93,72,39,30.25,30.11,11,1,11,0.00
2012-1-10,55.1,38.1,24.6,34.4,28.0,22.2,92,70,38,30.12,29.74,8,1,8,0.00
2012-1-11,43.4,41.1,37.9,42.1,39.6,34.4,96,94,74,29.74,29.48,13,2,13,0.26
2012-1-12,38.4,25.6,14.8,36.1,22.4,10.2,93,88,81,29.90,29.58,23,7,24,0.00
2012-1-13,20.6,16.0,7.2,15.3,10.6,4.3,90,79,69,30.19,29.90,23,5,23,0.00
2012-1-14,35.6,22.8,6.7,23.6,16.9,3.9,92,79,55,30.33,30.02,13,2,13,0.00
2012-1-15,40.9,29.7,16.5,31.6,24.2,14.3,94,80,65,30.43,30.09,14,4,14,0.01
2012-1-16,61.1,50.8,34.5,56.6,44.9,28.1,87,80,74,30.10,29.73,25,7,27,0.00
2012-1-17,61.4,40.9,22.4,57.2,35.9,16.8,92,82,73,30.32,29.57,39,8,39,0.31
2012-1-18,32.4,24.0,13.2,22.7,17.5,10.4,90,76,58,30.36,30.04,13,2,13,0.01
2012-1-19,37.3,29.3,17.3,27.5,22.7,10.9,84,76,60,30.14,29.93,20,5,20,0.01
2012-1-20,32.2,24.2,15.5,27.9,19.4,9.9,94,82,73,30.16,29.86,18,4,18,0.02
2012-1-21,28.2,24.8,21.6,25.4,22.5,18.9,94,91,87,30.20,29.97,14,4,14,0.00
2012-1-22,57.4,38.7,26.8,56.3,37.7,25.2,98,96,94,30.10,29.47,19,4,21,0.16
2012-1-23,52.8,41.1,28.6,50.4,35.7,26.7,97,81,68,30.07,29.47,27,6,27,0.06
2012-1-24,39.9,31.6,23.9,30.6,26.7,22.4,95,82,66,30.35,30.07,12,2,12,0.39
2012-1-25,34.0,31.1,28.3,33.0,29.0,25.3,96,92,87,30.33,29.94,18,2,19,0.62
2012-1-26,34.9,34.5,34.0,33.9,33.5,32.9,96,96,96,29.94,29.82,10,2,10,0.73
2012-1-27,39.6,36.1,34.5,34.7,33.3,32.2,94,89,77,30.04,29.94,10,1,10,0.02
2012-1-28,40.6,34.8,28.0,36.8,25.6,15.4,96,71,37,30.33,29.96,25,5,25,0.12
2012-1-29,44.9,36.3,27.8,26.0,22.7,20.5,85,59,40,30.28,30.19,22,5,22,0.00
2012-1-30,58.7,45.2,28.2,39.9,33.6,22.5,85,65,45,30.22,30.02,19,4,19,0.00
2012-1-31,61.0,54.2,47.2,53.4,43.9,33.0,86,69,51,30.05,29.93,23,7,23,0.00
2012-2-1,59.6,51.3,40.2,53.2,43.8,36.9,96,77,51,30.16,29.98,14,2,14,0.00
2012-2-2,61.1,44.1,29.2,43.6,35.3,28.0,97,75,37,30.35,30.16,8,1,8,0.00
2012-2-3,54.8,45.4,34.1,43.7,37.3,30.7,93,75,47,30.35,30.11,18,2,18,0.06
2012-2-4,46.9,44.4,41.7,45.8,43.3,40.5,97,96,90,30.15,30.00,18,3,18,0.56
2012-2-5,48.9,39.7,28.3,40.7,34.8,26.8,96,84,54,30.28,30.09,16,3,18,0.02
2012-2-6,45.2,32.5,24.7,37.0,30.0,23.5,97,91,72,30.30,30.19,10,1,11,0.00
2012-2-7,48.7,35.4,24.2,36.7,30.1,22.7,96,82,52,30.32,30.21,11,2,16,0.00
2012-2-8,36.1,32.4,30.6,31.0,28.1,24.6,95,84,69,30.42,30.32,12,2,14,0.04
2012-2-9,37.2,32.2,28.9,29.1,25.6,22.5,90,77,56,30.40,30.20,11,1,11,0.01
2012-2-10,37.6,32.0,21.6,35.8,28.9,14.3,95,88,73,30.24,29.98,28,4,28,0.05
2012-2-11,27.2,21.2,15.1,15.3,9.4,5.9,77,60,45,30.53,30.24,22,6,22,0.00
2012-2-12,34.2,23.5,17.2,16.6,9.9,6.9,87,58,33,30.55,30.32,15,3,15,0.00
2012-2-13,34.1,27.9,18.1,29.1,21.4,12.2,95,77,57,30.32,29.90,15,3,15,0.00
2012-2-14,39.3,32.3,28.8,34.1,30.4,27.0,95,93,78,30.07,29.85,7,2,12,0.14
2012-2-15,44.0,41.3,30.3,43.1,40.3,29.0,97,96,92,30.14,29.96,12,4,13,0.32
2012-2-16,48.7,41.5,28.7,43.9,38.6,27.5,97,90,71,30.25,29.95,15,3,15,0.06
2012-2-17,52.6,38.0,25.1,39.0,30.8,23.9,97,78,43,30.25,30.10,10,1,10,0.01
2012-2-18,44.9,38.2,32.6,33.2,30.4,27.0,90,74,54,30.18,30.08,17,5,17,0.00
2012-2-19,42.3,33.0,24.8,28.1,24.6,21.8,90,72,48,30.19,30.07,20,5,21,0.00
2012-2-20,49.4,36.2,20.0,31.6,25.9,18.0,93,68,39,30.28,29.85,15,3,18,0.00
2012-2-21,51.6,44.0,33.7,39.2,34.8,28.4,85,70,50,29.88,29.70,24,5,24,0.01
2012-2-22,62.6,46.6,31.4,40.3,33.0,26.3,89,62,31,29.81,29.45,21,2,21,0.00
2012-2-23,66.3,50.6,35.2,52.9,42.6,32.3,92,75,50,29.53,29.22,24,2,24,0.02
2012-2-24,49.7,39.5,32.7,42.6,28.4,21.3,85,65,50,30.13,29.45,31,9,31,0.00
2012-2-25,39.2,31.8,25.2,23.5,20.1,17.1,82,62,44,30.33,30.13,28,4,28,0.00
2012-2-26,59.6,42.1,26.0,31.2,26.4,20.0,81,57,29,30.31,30.08,19,5,19,0.00
2012-2-27,53.1,44.3,37.1,32.8,27.6,21.6,75,53,34,30.45,30.17,17,3,17,0.00
2012-2-28,60.2,41.3,32.5,55.9,28.1,22.8,87,60,45,30.43,29.74,13,3,15,0.02
2012-2-29,67.3,59.3,46.5,60.8,36.2,23.1,94,45,23,29.82,29.61,30,9,30,0.14
2012-3-1,63.2,48.7,34.2,36.8,32.6,29.1,84,55,32,29.92,29.61,18,3,20,0.00
2012-3-2,74.2,50.0,33.9,61.6,42.4,29.9,93,76,55,29.82,29.24,37,7,37,0.28
2012-3-3,45.0,36.1,26.4,30.7,26.4,22.6,89,70,45,29.94,29.80,22,4,22,0.00
2012-3-4,45.2,35.0,25.2,33.8,26.4,21.8,94,73,43,30.02,29.88,22,4,22,0.08
2012-3-5,46.2,34.5,24.4,29.3,25.2,21.4,89,70,41,30.45,30.02,23,3,23,0.00
2012-3-6,69.5,53.2,34.8,40.4,32.3,25.1,70,47,31,30.29,30.05,23,7,23,0.00
2012-3-7,69.2,61.4,54.1,53.8,44.3,30.4,69,54,36,30.14,29.96,20,8,20,0.00
2012-3-8,65.4,62.6,60.5,58.3,56.3,53.8,92,80,69,29.97,29.90,35,8,35,0.11
2012-3-10,61.3,51.2,39.5,31.4,28.6,21.1,65,44,25,30.47,30.29,8,2,9,0.02
2012-3-11,65.5,51.7,36.9,50.9,38.9,27.7,90,63,43,30.30,30.01,16,4,18,0.04
2012-3-12,76.2,64.7,53.8,59.2,56.1,50.9,93,76,47,30.01,29.82,24,7,25,0.01
2012-3-13,80.3,64.9,49.9,56.9,52.3,48.0,96,67,34,30.08,29.94,12,2,12,0.00
2012-3-14,57.5,56.0,54.7,54.8,53.9,53.2,96,93,87,30.06,30.03,4,2,4,0.00
2012-3-16,76.7,66.7,57.1,61.7,57.6,54.3,93,74,53,30.06,30.00,7,1,10,0.01
2012-3-17,80.8,64.7,56.0,66.3,59.5,53.5,97,85,56,30.08,29.96,19,2,23,0.44
2012-3-18,80.3,67.0,55.0,67.7,60.7,53.8,97,81,55,30.08,29.96,14,3,14,0.01
2012-3-19,81.3,69.8,62.0,66.4,59.1,52.0,92,70,47,30.02,29.85,17,4,17,0.00
2012-3-20,82.3,72.9,60.4,60.5,56.8,52.4,82,58,39,29.98,29.88,23,4,23,0.00
2012-3-21,84.0,70.7,62.9,60.5,57.0,54.3,78,63,41,30.03,29.90,13,2,13,0.00
2012-3-22,69.8,64.3,59.3,62.2,59.2,56.1,96,84,63,30.04,29.91,17,2,19,0.29
2012-3-23,64.8,56.8,49.8,59.8,53.9,47.3,98,90,69,29.97,29.76,23,1,23,0.52
2012-3-24,67.7,56.8,49.4,55.6,51.8,48.1,97,84,59,29.90,29.77,12,2,12,0.26
2012-3-25,71.9,59.8,51.4,58.8,54.4,50.3,97,83,58,30.04,29.89,14,2,14,0.00
2012-3-26,70.8,59.3,50.2,53.9,48.0,38.0,97,69,47,30.19,30.03,18,3,18,0.00
2012-3-27,77.1,60.7,46.4,56.3,46.6,37.7,75,61,40,30.15,29.92,15,3,15,0.00
2012-3-28,78.7,68.8,56.2,60.2,53.1,41.1,85,60,28,29.98,29.91,15,3,15,0.00
2012-3-29,72.8,63.1,52.8,52.3,46.8,39.8,86,56,40,30.00,29.83,15,3,15,0.02
2012-3-30,80.6,65.1,54.1,64.8,57.5,46.7,96,78,51,29.83,29.66,16,2,16,0.30
2012-3-31,72.6,58.2,46.6,59.1,52.6,44.7,96,83,54,29.90,29.77,16,2,16,0.00
2012-4-1,85.1,70.3,56.6,68.1,61.1,53.8,91,75,49,29.79,29.58,16,2,17,0.00
2012-4-2,88.3,73.2,60.8,70.6,64.1,58.9,96,75,48,29.79,29.59,9,1,9,0.00
2012-4-3,80.3,68.7,56.6,66.8,61.4,55.5,97,79,54,29.86,29.74,12,1,13,0.00
2012-4-4,72.0,64.7,58.1,66.1,61.4,54.7,97,89,76,29.79,29.67,16,2,18,0.25
2012-4-5,62.2,55.0,47.8,56.6,46.7,36.3,96,75,38,30.01,29.67,22,6,22,0.56
2012-4-6,60.9,48.1,36.8,41.6,37.5,33.9,93,69,42,30.20,30.01,17,4,18,0.00
2012-4-7,68.8,52.6,36.7,51.0,42.1,34.7,96,71,33,30.27,30.12,9,1,9,0.00
2012-4-8,66.8,56.2,41.9,50.3,40.2,28.4,92,60,25,30.32,30.15,20,3,20,0.00
2012-4-9,69.4,54.8,39.4,44.9,36.4,25.5,95,57,22,30.15,30.01,22,3,22,0.00
2012-4-10,58.2,49.5,36.5,39.6,29.9,22.9,88,49,28,30.17,30.03,18,3,19,0.00
2012-4-11,56.0,42.9,29.4,33.5,28.8,23.2,92,62,31,30.29,30.10,18,2,18,0.00
2012-4-12,34.1,31.6,29.6,32.3,30.0,28.0,95,94,92,30.28,30.22,2,0,2,0.00
2012-4-13,57.2,49.4,47.0,48.2,46.6,40.7,93,90,54,30.20,29.99,23,2,23,0.49
2012-4-14,77.8,61.1,49.6,70.4,56.7,47.4,97,86,64,30.07,29.82,14,1,14,0.49
2012-4-15,76.7,65.8,58.0,66.0,59.1,55.9,94,79,67,29.88,29.66,15,2,22,0.07
2012-4-16,65.4,56.8,46.3,58.0,47.4,44.2,96,72,51,30.23,29.71,24,4,24,0.42
2012-4-17,66.8,54.2,41.6,53.5,45.6,40.5,97,76,42,30.36,30.23,11,1,11,0.00
2012-4-18,72.5,56.0,39.7,52.2,46.1,38.7,97,74,37,30.25,30.02,10,0,10,0.00
2012-4-19,76.9,61.8,45.0,55.1,49.4,43.8,97,68,40,30.03,29.77,11,1,11,0.00
2012-4-20,63.1,51.9,44.3,54.9,47.2,40.3,93,84,69,29.97,29.71,14,2,15,0.24
2012-4-21,56.7,46.0,40.0,45.0,40.1,36.3,94,81,57,30.03,29.95,17,3,17,0.00
2012-4-22,59.4,47.6,38.8,45.9,38.2,28.3,97,73,39,30.07,29.87,21,3,21,0.04
2012-4-23,60.2,48.2,33.4,41.3,34.7,28.7,87,62,39,30.07,29.89,22,3,25,0.00
2012-4-24,71.0,55.3,40.1,56.8,46.0,37.4,93,72,46,29.89,29.63,16,2,16,0.00
2012-4-25,82.0,66.9,50.0,66.4,57.7,47.8,95,74,51,29.67,29.53,11,1,12,0.00
2012-4-26,77.3,67.2,53.6,63.5,56.8,39.8,97,71,50,30.04,29.57,20,3,20,0.07
2012-4-27,58.7,51.8,41.4,44.2,35.3,26.5,68,53,42,30.17,29.91,23,4,23,0.01
2012-4-28,77.3,65.1,54.8,68.8,57.1,37.7,95,76,50,29.99,29.83,19,2,19,0.27
2012-4-29,72.7,60.8,51.7,66.1,58.2,50.9,97,91,76,30.09,29.94,13,2,13,0.01
2012-4-30,77.8,65.8,56.4,68.7,62.6,55.2,97,90,70,29.99,29.88,13,1,13,0.18
2012-5-1,83.5,69.1,55.2,71.6,63.5,54.4,98,84,56,29.96,29.79,19,2,19,0.19
2012-5-2,88.2,80.3,64.7,71.3,67.7,62.0,91,66,52,29.94,29.82,20,2,20,0.00
2012-5-4,83.4,75.2,63.8,76.3,71.1,61.1,97,88,72,29.99,29.82,29,1,29,0.21
2012-5-5,87.0,72.3,62.1,78.4,68.5,61.0,98,89,70,29.89,29.82,15,1,24,0.14
2012-5-6,90.0,80.7,67.9,76.9,71.2,62.6,97,74,56,29.90,29.77,9,1,9,0.00
2012-5-7,75.8,70.4,67.4,67.3,64.3,62.4,88,81,69,29.84,29.75,14,2,14,0.00
2012-5-8,69.8,64.1,55.1,57.7,53.6,46.4,92,70,45,29.95,29.89,14,2,14,0.01
2012-5-9,69.1,58.5,47.7,52.9,49.0,45.6,97,73,47,29.96,29.89,18,2,18,0.00
2012-5-10,72.4,59.3,46.7,51.9,47.9,44.6,97,70,40,30.02,29.91,10,1,10,0.00
2012-5-11,74.5,60.5,44.5,56.9,49.4,42.7,96,70,39,30.14,30.01,11,0,11,0.00
2012-5-12,74.0,60.6,51.8,60.7,53.6,48.7,95,80,45,30.19,30.11,7,0,7,0.00
2012-5-13,78.3,61.4,48.6,61.0,53.5,47.5,97,78,45,30.14,30.01,17,2,17,0.00
2012-5-14,79.3,64.5,51.4,60.8,54.2,48.0,93,71,44,30.07,29.97,13,1,13,0.00
2012-5-15,81.2,62.7,48.1,57.7,50.0,43.2,97,69,29,30.02,29.92,12,1,12,0.00
2012-5-16,78.6,63.7,52.6,61.5,54.4,49.3,95,75,36,29.98,29.93,14,2,14,0.00
2012-5-17,78.7,66.2,53.5,49.6,47.6,42.8,82,55,28,30.00,29.96,10,1,14,0.00
2012-5-18,86.0,69.1,51.1,65.7,56.3,46.7,90,66,36,30.03,29.90,11,1,11,0.00
2012-5-19,90.3,74.8,60.7,70.1,63.4,58.7,95,70,41,30.02,29.94,7,0,10,0.00
2012-5-20,88.5,71.1,61.8,70.5,63.7,59.7,94,79,46,30.08,29.93,20,1,20,0.11
2012-5-21,72.3,64.2,51.3,62.2,56.0,49.3,94,76,54,30.08,30.00,18,3,18,0.00
2012-5-22,76.0,60.8,46.4,53.9,48.8,45.3,97,69,36,30.06,29.87,18,2,18,0.00
2012-5-23,83.0,65.2,46.4,58.7,51.0,45.3,97,66,31,29.90,29.73,11,0,11,0.00
2012-5-24,89.7,74.5,55.7,68.3,59.9,52.5,89,63,41,29.77,29.61,14,1,15,0.00
2012-5-25,89.8,77.9,68.3,75.5,68.3,62.5,91,73,57,29.97,29.75,9,1,10,0.00
2012-5-26,92.4,78.2,65.4,75.4,68.4,63.2,94,74,47,30.05,29.93,11,1,13,0.00
2012-5-27,93.0,78.3,64.7,71.2,66.1,61.2,94,69,39,30.00,29.86,12,1,12,0.00
2012-5-28,93.0,79.7,67.7,72.1,66.6,63.2,90,67,41,29.90,29.74,15,1,15,0.00
2012-5-29,86.5,74.2,63.1,69.4,65.5,57.9,96,77,44,29.86,29.74,11,1,11,0.30
2012-5-30,81.2,66.1,57.9,62.3,57.7,50.7,96,77,39,29.98,29.82,9,1,9,0.04
2012-5-31,64.3,57.8,55.6,54.7,50.6,48.2,88,77,68,29.86,29.78,10,2,10,0.00
2012-6-5,72.5,69.6,66.8,56.7,55.2,53.8,63,60,58,29.90,29.89,7,4,11,0.00
2012-6-6,75.6,69.6,60.3,50.9,48.8,46.2,70,49,36,30.02,29.99,13,5,17,0.00
2012-6-7,77.2,63.4,49.1,57.2,52.3,48.0,96,70,37,30.09,30.06,7,1,8,0.00
2012-6-8,81.1,80.7,80.3,55.6,54.6,52.5,42,41,39,30.07,30.06,0,0,0,0.00
2012-6-9,77.2,76.2,75.7,62.5,61.1,59.9,63,60,56,29.97,29.96,5,0,5,0.00
2012-6-11,85.3,76.2,66.2,73.6,69.3,64.5,95,80,67,29.95,29.85,21,2,24,0.49
2012-6-12,73.1,63.6,61.1,63.6,61.4,53.3,98,93,55,30.03,29.93,7,0,7,0.44
2012-6-14,86.0,85.4,84.2,62.2,61.7,60.3,46,45,44,30.02,30.01,6,2,11,0.00
2012-6-18,70.2,70.2,70.2,65.8,65.8,64.7,86,86,86,29.82,29.81,1,0,1,0.00
2012-6-19,80.7,79.4,76.7,70.0,69.1,67.4,73,71,70,29.98,29.97,9,2,9,0.00
2012-6-20,82.0,79.4,71.5,69.2,68.1,65.4,81,69,62,30.06,30.04,3,0,3,0.00
2012-6-26,87.0,77.0,57.6,54.4,49.6,44.3,82,42,24,29.98,29.86,17,2,17,0.00
2012-6-27,95.5,75.7,53.5,57.8,53.6,48.0,89,52,21,29.99,29.84,9,0,10,0.00
2012-6-28,105.8,87.3,68.8,65.0,58.0,49.6,67,41,17,29.93,29.82,15,2,15,0.00
2012-6-29,104.0,86.4,66.2,73.4,65.6,58.6,88,55,25,29.88,29.74,12,1,12,0.00
2012-6-30,101.6,87.6,70.3,74.6,67.3,62.1,83,54,30,29.82,29.75,16,1,16,0.00
2012-7-1,102.5,85.4,70.4,73.0,67.1,61.7,88,58,29,29.92,29.81,14,1,14,0.00
2012-7-2,101.3,83.0,68.2,75.2,67.0,58.4,88,62,26,29.96,29.86,19,1,19,0.00
2012-7-3,99.5,81.9,71.9,74.6,69.0,64.6,93,68,38,29.94,29.83,13,1,13,0.02
2012-7-4,102.7,85.1,71.1,74.6,68.2,58.3,97,64,25,29.92,29.84,13,1,13,0.00
2012-7-5,106.0,88.3,71.2,73.4,67.9,57.8,94,57,22,29.94,29.85,12,2,12,0.00
2012-7-6,105.0,88.4,70.8,76.1,68.8,63.1,92,58,27,29.94,29.85,13,1,14,0.00
2012-7-7,105.5,87.1,73.2,75.8,70.4,65.7,90,62,29,29.94,29.82,18,1,18,0.00
2012-7-8,100.8,83.4,72.9,75.1,71.3,66.4,90,70,40,29.97,29.83,28,2,28,0.00
2012-7-9,89.3,78.9,69.1,70.8,67.6,64.3,94,70,49,29.99,29.90,12,1,12,0.00
2012-7-10,94.6,79.8,65.3,69.0,62.3,53.6,96,61,26,29.98,29.91,18,2,18,0.00
2012-7-11,96.5,81.6,66.5,65.9,60.8,53.6,80,53,26,30.01,29.93,16,3,16,0.00
2012-7-12,95.3,83.1,64.8,71.8,65.2,60.2,90,58,33,30.00,29.92,13,2,13,0.00
2012-7-13,90.4,78.6,66.2,71.2,67.4,64.3,96,71,48,30.08,29.98,12,1,12,0.00
2012-7-14,87.0,77.5,70.3,77.5,71.6,68.1,95,83,61,30.12,30.01,6,0,11,0.06
2012-7-15,96.2,81.2,68.4,73.4,69.9,65.5,97,72,42,30.15,30.00,9,0,9,0.00
2012-7-16,97.8,83.6,70.4,74.4,71.0,68.8,97,69,43,30.07,29.88,14,1,14,0.00
2012-7-17,100.2,85.2,72.1,74.6,71.0,67.1,93,66,35,29.94,29.82,15,2,15,0.00
2012-7-18,103.0,86.8,74.2,75.4,72.2,64.2,91,65,30,29.95,29.81,16,1,16,0.00
2012-7-19,100.9,87.9,73.9,74.8,70.2,65.2,88,60,33,29.93,29.78,20,3,20,0.00
2012-7-20,87.9,79.3,68.3,71.9,68.8,64.7,91,72,50,30.06,29.87,19,4,19,0.00
2012-7-21,93.8,77.2,61.8,66.8,59.7,51.6,97,61,25,30.14,30.04,19,2,19,0.00
2012-7-22,98.6,81.2,62.8,68.8,62.7,58.2,87,58,31,30.16,30.02,13,1,13,0.00
2012-7-23,102.9,84.3,69.9,73.4,68.2,61.6,91,62,31,30.11,29.96,15,2,16,0.00
2012-7-24,104.5,90.0,76.9,72.9,69.0,63.9,77,54,29,29.99,29.82,17,2,17,0.00
2012-7-25,106.2,90.3,75.8,72.5,69.6,62.9,85,55,26,29.87,29.70,14,2,15,0.00
2012-7-26,95.7,86.2,72.5,72.3,70.0,65.8,91,60,39,29.86,29.69,15,3,15,0.00
2012-7-27,100.3,83.3,70.4,72.5,65.1,57.3,96,61,29,30.00,29.84,16,4,22,0.00
2012-7-28,92.0,74.5,61.5,63.6,60.6,58.8,93,65,33,30.12,30.01,12,1,20,0.00
2012-7-29,91.5,76.9,62.9,68.3,64.0,59.6,90,67,41,30.14,29.97,11,1,11,0.00
2012-7-30,90.3,78.6,68.9,72.8,68.8,65.3,92,74,51,29.99,29.85,13,1,13,0.00
2012-7-31,101.5,83.1,66.7,74.5,68.0,62.8,97,66,30,29.98,29.84,14,2,14,0.00
2012-8-1,100.3,83.4,69.4,68.6,61.4,49.1,87,53,20,29.93,29.82,14,2,14,0.00
2012-8-2,100.8,81.1,65.2,75.9,66.7,55.9,95,65,39,29.88,29.69,17,2,17,0.21
2012-8-3,95.0,80.6,71.2,77.9,73.3,69.9,97,80,52,29.86,29.77,12,1,12,0.00
2012-8-4,93.5,79.9,73.2,77.9,74.3,71.1,97,84,51,29.95,29.84,12,1,12,0.02
2012-8-5,90.0,80.2,65.3,76.8,65.1,57.0,97,64,34,30.15,29.95,18,2,18,0.16
2012-8-6,92.6,76.5,61.3,67.3,60.2,54.9,96,63,30,30.18,30.02,11,1,11,0.02
2012-8-7,96.8,75.5,60.4,66.4,61.0,53.0,96,67,25,30.06,29.94,8,0,8,0.01
2012-8-8,98.8,77.4,68.8,68.5,63.0,59.7,82,64,29,30.01,29.87,10,1,14,0.01
2012-8-9,93.9,82.9,69.2,66.8,64.4,61.0,82,56,35,29.93,29.74,12,2,13,0.01
2012-8-10,79.4,70.9,61.5,66.5,59.9,54.7,90,70,44,30.02,29.80,17,3,18,0.00
2012-8-11,84.6,68.3,51.6,59.0,52.7,48.0,96,63,30,30.11,30.00,15,2,15,0.00
2012-8-12,82.0,67.0,52.2,63.9,56.3,50.3,95,71,38,30.11,30.00,9,0,9,0.01
2012-8-13,82.0,70.9,61.5,69.2,63.6,53.6,96,79,62,30.03,29.89,17,2,17,0.03
2012-8-14,79.6,69.8,61.8,65.5,61.2,58.0,95,76,49,30.05,29.95,14,2,14,0.00
2012-8-15,88.6,72.8,58.5,65.8,59.9,51.5,97,69,29,30.08,29.95,10,0,11,0.00
2012-8-16,94.2,74.0,65.3,76.5,67.7,60.2,97,82,54,30.00,29.77,20,2,56,1.14
2012-8-17,80.3,68.4,55.5,68.5,59.1,49.7,98,76,39,30.09,29.98,12,2,12,0.00
2012-8-18,80.2,66.0,50.2,60.2,54.1,49.1,97,70,37,30.09,29.96,8,1,8,0.00
2012-8-19,81.0,66.4,56.3,60.5,56.2,51.1,96,74,39,30.03,29.96,13,1,13,0.00
2012-8-20,80.3,66.4,52.3,63.4,55.9,51.2,97,73,37,30.07,30.00,6,1,12,0.00
2012-8-21,84.5,67.8,54.7,64.3,57.7,53.6,97,75,38,30.12,30.04,4,1,10,0.01
2012-8-22,91.5,76.3,56.4,64.1,58.1,49.6,95,58,26,30.15,30.06,9,1,9,0.00
2012-8-23,93.3,74.3,56.6,67.7,58.6,53.6,96,65,29,30.13,30.04,8,0,8,0.00
2012-8-24,93.3,75.8,61.2,65.3,60.5,55.0,92,64,30,30.09,29.99,12,1,12,0.00
2012-8-25,92.7,77.5,61.9,69.0,64.4,59.5,92,67,38,30.09,30.00,14,1,14,0.00
2012-8-26,91.4,81.4,66.0,73.8,69.9,63.9,95,70,49,30.10,29.96,12,1,12,0.66
2012-8-27,87.2,76.4,65.3,74.7,70.2,63.0,98,83,50,30.10,29.99,15,2,15,0.03
2012-8-28,88.3,73.3,59.4,66.1,60.5,56.4,98,70,36,30.16,30.03,18,2,18,0.00
2012-8-29,90.5,74.2,58.6,65.7,61.5,56.9,96,69,39,30.11,29.98,14,2,14,0.00
2012-8-30,93.8,77.8,62.3,68.6,63.2,56.9,90,65,31,30.07,29.97,10,1,10,0.00
2012-8-31,90.8,78.7,71.1,74.9,71.9,67.5,96,81,55,30.09,29.90,18,2,18,2.34
2012-9-1,84.1,75.1,70.6,77.0,72.9,69.2,97,93,77,29.96,29.81,19,2,19,0.89
2012-9-2,83.5,76.3,71.8,77.1,73.7,71.1,98,92,75,29.81,29.75,15,3,15,0.16
2012-9-3,80.8,75.0,69.4,75.6,72.5,68.5,97,92,80,29.91,29.79,10,2,10,0.01
2012-9-4,92.0,78.7,67.0,78.3,72.4,66.4,99,83,56,29.95,29.85,8,0,8,0.00
2012-9-5,83.8,73.7,66.6,76.3,71.3,64.9,98,93,73,29.96,29.80,29,1,29,0.13
2012-9-6,91.0,75.2,64.0,77.7,69.8,62.5,99,85,53,29.99,29.90,21,1,21,0.01
2012-9-7,89.9,73.8,61.1,78.2,68.3,60.2,98,84,64,29.93,29.64,11,1,11,0.00
2012-9-8,72.0,64.5,53.9,65.9,54.5,50.6,96,72,53,30.05,29.85,15,3,21,0.01
2012-9-9,73.6,61.8,53.1,57.2,54.0,51.7,96,78,50,30.22,30.00,17,2,17,0.00
2012-9-10,79.3,63.0,49.6,58.0,53.0,48.7,98,74,43,30.31,30.20,10,1,10,0.00
2012-9-11,83.8,70.8,52.7,64.1,59.6,51.8,98,71,46,30.29,30.17,5,0,8,0.01
2012-9-12,83.5,68.9,56.2,68.1,61.0,55.1,97,78,48,30.28,30.19,9,0,9,0.00
2012-9-13,84.2,68.8,59.8,69.9,62.8,56.0,96,82,55,30.31,30.22,11,1,11,0.00
2012-9-14,71.5,61.3,54.2,60.9,56.3,50.6,95,84,50,30.39,30.30,17,3,17,0.12
2012-9-15,70.9,59.5,49.1,59.4,53.6,48.0,97,82,51,30.42,30.23,13,1,13,0.00
2012-9-16,73.3,64.9,55.8,66.0,60.4,53.5,95,86,68,30.23,30.06,8,0,8,0.00
2012-9-17,68.7,64.9,60.8,67.2,63.7,59.7,98,96,90,30.06,29.82,9,0,9,1.37
2012-9-18,66.5,57.8,44.7,64.4,48.6,42.2,98,74,42,30.19,29.83,20,3,25,0.01
2012-9-19,73.1,56.7,41.4,52.1,46.0,40.3,98,71,40,30.28,30.10,11,1,11,0.00
2012-9-20,76.3,60.4,50.1,61.2,52.3,46.5,93,76,42,30.12,30.01,11,1,11,0.00
2012-9-21,79.2,62.6,47.7,66.7,56.1,46.4,96,81,51,30.10,29.76,12,1,18,0.33
2012-9-22,67.7,56.9,41.8,56.3,46.4,32.7,97,73,30,30.32,29.92,19,3,20,0.01
2012-9-23,65.2,49.8,37.1,46.5,40.9,36.1,97,76,37,30.44,30.32,16,1,16,0.00
2012-9-24,70.8,53.2,36.1,51.5,43.1,35.1,97,73,36,30.41,30.10,11,0,11,0.00
2012-9-25,79.5,63.0,49.7,70.1,59.3,46.3,97,88,70,30.10,29.91,30,1,30,1.21
2012-9-26,73.2,65.1,61.8,67.9,63.7,60.9,98,95,82,30.14,29.99,29,1,30,1.87
2012-9-27,69.0,64.7,62.3,66.4,63.8,61.7,99,97,89,30.22,30.12,7,1,9,0.01
2012-9-28,71.0,60.9,51.3,62.0,54.6,50.1,98,82,49,30.25,30.15,13,2,13,0.06
2012-9-29,74.5,58.8,47.1,60.0,52.8,46.3,98,83,51,30.23,30.07,12,1,12,0.00
2012-9-30,72.1,58.2,48.2,57.9,52.2,47.4,98,83,47,30.08,29.91,12,1,12,0.00
2012-10-1,59.1,55.4,53.1,54.6,51.3,48.2,94,86,75,29.93,29.79,14,3,14,0.06
2012-10-2,59.2,54.7,50.4,54.0,51.8,48.0,95,90,80,29.99,29.81,14,2,14,0.02
2012-10-3,76.3,62.2,54.6,61.0,56.2,53.2,97,83,51,30.17,29.99,20,1,20,0.01
2012-10-4,79.1,64.3,53.9,65.6,58.0,50.4,98,82,54,30.26,30.17,11,1,12,0.35
2012-10-5,56.4,47.4,39.7,50.6,44.4,37.5,96,89,81,30.27,30.13,17,3,17,0.09
2012-10-6,50.7,41.8,33.6,39.5,35.8,32.5,97,81,56,30.34,30.22,14,1,14,0.10
2012-10-7,53.1,42.8,35.5,39.1,35.2,31.8,95,76,46,30.26,30.17,14,2,14,0.03
2012-10-8,60.5,44.5,31.5,45.8,36.8,30.4,97,78,42,30.26,30.08,12,1,12,0.13
2012-10-9,65.3,50.5,37.6,49.8,43.2,36.3,96,78,51,30.10,29.90,10,1,12,0.06
2012-10-10,56.3,47.5,35.4,48.0,36.9,29.0,94,70,38,30.24,29.92,22,3,22,0.00
2012-10-11,64.9,47.7,33.3,47.7,40.5,32.0,95,78,45,30.27,30.14,7,0,11,0.00
2012-10-12,66.3,55.4,46.0,51.7,48.5,44.7,96,79,56,30.31,30.16,20,2,20,0.02
2012-10-13,75.8,61.1,47.6,66.5,58.0,46.2,98,90,72,30.19,29.76,4,1,18,0.00
2012-10-14,73.0,64.9,53.3,64.9,58.2,49.8,97,80,59,29.92,29.56,29,6,29,0.29
2012-10-15,67.2,54.0,44.1,50.5,46.4,42.8,96,78,46,30.04,29.92,10,2,14,0.00
2012-10-16,77.9,56.4,43.4,59.1,49.0,42.1,96,79,49,30.01,29.71,10,1,10,0.00
2012-10-17,72.1,58.9,52.6,62.3,55.0,50.3,97,88,63,29.70,29.33,20,2,20,1.06
2012-10-18,61.9,54.3,46.9,50.6,41.2,31.9,94,64,34,29.72,29.54,25,4,25,0.01
2012-10-19,53.9,50.2,46.1,46.8,42.8,37.5,91,76,54,29.83,29.60,22,6,22,0.01
2012-10-20,60.1,50.7,45.9,49.6,45.4,42.8,92,83,63,29.99,29.82,12,2,12,0.00
2012-10-21,77.6,61.1,45.6,64.1,53.4,43.8,94,78,51,30.04,29.95,11,1,11,0.00
2012-10-22,80.5,67.6,60.5,65.9,58.0,53.5,92,72,59,30.01,29.91,11,2,11,0.18
2012-10-23,73.2,65.4,60.6,67.0,57.9,52.4,96,77,63,30.00,29.89,13,1,13,0.05
2012-10-24,81.5,67.6,57.1,68.4,60.6,54.0,91,79,60,30.03,29.91,13,2,13,0.00
2012-10-25,80.3,65.2,44.2,66.5,58.5,42.3,94,80,61,30.20,29.80,23,3,23,0.30
2012-10-26,48.3,42.6,36.9,42.5,36.9,33.3,94,80,64,30.43,30.19,18,5,18,0.27
2012-10-27,52.0,41.4,32.5,39.2,33.9,29.8,90,76,55,30.43,30.29,19,4,19,0.00
2012-10-28,50.6,40.9,34.4,37.2,33.3,30.5,89,75,56,30.35,30.29,15,3,15,0.00
2012-10-29,54.4,42.3,31.4,37.3,31.2,28.0,92,67,39,30.40,30.17,21,3,21,0.00
2012-10-30,56.5,44.3,37.1,29.2,26.7,20.8,69,52,26,30.17,29.91,26,4,26,0.00
2012-10-31,51.9,40.0,31.1,33.7,28.0,23.8,83,64,35,30.07,29.97,18,3,18,0.00
2012-11-1,56.7,43.4,29.7,40.4,31.7,23.8,90,65,37,30.13,29.96,14,2,14,0.00
2012-11-2,54.4,44.0,35.0,37.3,35.1,31.8,90,72,45,30.18,29.97,12,2,12,0.00
2012-11-3,52.7,42.4,34.9,40.2,35.3,33.2,94,77,56,30.20,30.11,13,3,20,0.00
2012-11-4,51.9,38.7,28.1,37.2,32.8,26.9,96,81,53,30.27,30.17,16,2,16,0.00
2012-11-5,44.6,40.2,35.9,40.0,36.6,33.5,93,87,78,30.21,30.09,9,1,9,0.03
2012-11-6,48.8,42.4,38.0,42.4,38.9,36.6,96,88,68,30.09,29.92,8,1,8,0.12
2012-11-7,50.7,43.1,36.6,42.7,39.3,35.3,97,87,66,30.20,29.92,10,2,14,0.02
2012-11-8,55.6,41.2,28.7,45.2,36.2,27.5,97,84,57,30.29,30.12,8,1,8,0.00
2012-11-9,42.1,40.1,39.5,38.8,37.2,36.5,91,90,88,30.14,30.12,5,1,5,0.00
2012-11-10,72.9,61.6,52.4,54.6,50.3,44.5,78,67,46,30.03,29.92,14,5,15,0.00
2012-11-11,67.6,59.0,48.8,57.1,51.8,47.5,96,78,62,29.99,29.78,20,5,20,0.76
2012-11-12,48.8,36.1,27.7,47.7,28.6,22.9,96,76,45,30.50,29.96,20,5,20,0.38
2012-11-13,45.9,33.3,23.6,32.2,25.1,22.1,96,75,41,30.62,30.50,10,1,10,0.00
2012-11-14,45.9,33.4,25.5,31.7,26.1,22.9,93,77,45,30.58,30.43,9,1,9,0.00
2012-11-15,49.9,33.9,22.6,34.3,27.2,21.1,96,79,43,30.48,30.39,10,0,10,0.00
2012-11-16,54.9,37.3,25.2,36.9,29.1,23.7,96,76,36,30.53,30.45,9,1,9,0.01
2012-11-17,57.4,38.6,25.2,38.4,30.5,23.7,96,76,39,30.59,30.45,9,1,9,0.00
2012-11-18,61.3,41.1,26.1,40.8,32.4,24.7,96,75,39,30.47,30.35,7,0,7,0.00
2012-11-19,59.8,45.4,31.5,42.7,37.1,29.3,94,75,47,30.36,30.14,7,1,8,0.00
2012-11-20,61.7,53.8,43.7,50.2,46.1,40.0,89,75,64,30.15,30.03,10,1,10,0.00
2012-11-21,61.3,46.7,36.2,50.8,42.7,35.1,97,87,65,30.28,30.14,7,0,7,0.00
2012-11-22,65.1,52.0,39.8,52.1,46.1,38.7,97,82,53,30.18,29.96,14,4,14,0.20
2012-11-23,54.9,40.6,28.3,52.3,30.6,19.5,91,68,44,30.35,30.00,19,5,24,0.00
2012-11-24,34.7,28.2,22.9,24.5,20.8,18.0,89,74,60,30.41,30.14,12,2,12,0.00
2012-11-25,53.3,41.4,29.2,34.2,29.7,23.8,91,65,42,30.14,29.96,16,2,16,0.00
2012-11-26,47.4,37.3,30.2,33.6,29.2,24.4,92,73,56,30.39,30.08,20,5,20,0.00
2012-11-27,39.4,29.1,21.6,26.9,22.8,18.9,92,78,55,30.51,30.38,10,1,10,0.00
2012-11-28,47.4,31.7,20.6,28.9,24.1,18.6,95,76,45,30.54,30.41,8,0,8,0.00
2012-11-29,55.9,40.5,25.9,37.2,30.8,22.8,92,70,44,30.41,30.17,14,2,14,0.01
2012-11-30,61.4,47.2,35.3,43.4,36.8,28.3,90,68,49,30.19,30.08,12,2,12,0.00
2012-12-1,65.5,54.2,41.8,53.8,47.8,39.8,96,80,65,30.15,29.97,13,4,15,0.00
2012-12-2,68.3,62.4,57.2,60.1,55.3,50.3,97,78,68,30.00,29.93,17,5,17,0.00
2012-12-3,68.5,62.9,58.5,60.9,58.4,55.0,97,86,74,30.00,29.88,11,5,17,0.00
2012-12-4,60.9,51.4,34.8,57.1,47.5,33.5,95,87,68,30.27,29.90,6,2,14,0.04
2012-12-5,55.6,41.5,30.5,39.2,34.2,29.5,97,77,49,30.40,30.21,8,2,11,0.01
2012-12-6,52.3,43.0,33.9,43.7,37.8,31.0,91,82,67,30.20,29.95,7,1,9,0.00
2012-12-7,57.6,51.0,45.0,54.3,49.3,42.8,97,94,85,29.95,29.77,4,0,8,0.04
2012-12-8,49.2,45.5,42.9,48.4,42.6,40.2,97,90,84,29.98,29.82,14,3,14,0.01
2012-12-9,53.3,47.8,41.0,52.5,46.4,37.9,98,95,86,29.95,29.72,17,2,17,0.06
2012-12-10,41.6,31.4,28.5,38.7,26.5,22.2,91,82,74,30.12,29.81,22,4,22,0.00
2012-12-11,38.7,28.1,21.3,25.0,22.0,19.1,93,78,53,30.32,30.12,10,1,15,0.00
2012-12-12,47.9,32.7,22.2,30.2,24.8,20.0,94,75,41,30.44,30.32,6,1,8,0.00
2012-12-13,51.2,35.9,23.1,32.2,26.1,20.7,92,70,40,30.44,30.27,8,2,11,0.01
2012-12-14,54.4,45.5,27.0,35.8,32.8,24.5,90,62,43,30.30,30.05,10,2,11,0.00
2012-12-15,56.6,50.3,42.4,52.3,46.9,34.5,95,88,68,30.05,29.62,19,6,19,0.26
2012-12-16,54.1,46.0,35.1,52.3,42.8,34.0,96,89,81,29.73,29.62,11,1,11,0.00
2012-12-17,41.6,39.0,35.4,40.5,37.8,34.3,97,96,91,29.81,29.63,16,3,16,0.03
2012-12-18,53.4,42.8,30.7,41.3,37.0,29.3,96,81,58,29.91,29.69,16,4,16,0.00
2012-12-19,52.9,40.5,29.5,48.2,35.9,27.3,93,84,74,30.05,29.58,21,3,21,0.00
2012-12-20,55.7,41.2,28.0,53.6,36.9,21.7,97,85,67,29.90,29.21,43,11,43,0.06
2012-12-21,35.3,28.9,24.2,22.1,19.1,16.2,78,67,52,30.36,29.89,29,8,29,0.03
2012-12-22,42.6,28.8,17.7,27.3,20.7,15.4,93,73,43,30.40,30.04,9,2,9,0.07
2012-12-23,53.5,40.6,32.7,33.7,30.8,26.8,86,69,44,30.04,29.85,12,2,12,0.18
2012-12-24,40.1,33.4,24.8,34.8,29.0,20.4,91,84,77,30.18,29.78,16,3,16,0.02
2012-12-25,35.0,30.0,24.0,28.5,24.7,19.3,88,81,70,30.30,29.94,30,8,30,0.01
2012-12-26,32.5,29.9,28.0,29.8,27.6,25.2,95,91,79,30.22,29.82,28,7,30,0.01
2012-12-27,32.3,29.1,26.7,26.7,25.4,24.5,92,86,76,30.29,30.19,8,1,11,0.01
2012-12-28,35.1,31.8,27.2,31.0,29.4,24.7,96,91,83,30.17,29.92,6,1,8,0.01
2012-12-29,30.7,24.4,11.4,29.7,20.6,8.7,96,85,76,30.45,29.91,21,3,21,0.00
2012-12-30,33.4,21.0,6.9,25.5,17.1,4.3,93,85,69,30.60,30.37,8,2,8,0.06
2012-12-31,35.9,32.5,28.4,31.6,29.2,24.6,96,88,76,30.38,30.13,10,2,10,0.03
2013-1-1,31.7,24.0,14.5,30.7,20.6,11.3,96,87,77,30.35,30.13,12,2,12,0.00